createdAt,value
2019-03-21T00:01:12.791Z,36.70
2019-03-21T00:03:39.769Z,34.60
2019-03-21T00:06:09.156Z,33.97
2019-03-21T00:08:36.240Z,37.53
2019-03-21T00:11:23.495Z,47.83
2019-03-21T00:13:49.976Z,52.60
2019-03-21T00:16:16.514Z,39.23
2019-03-21T00:18:43.246Z,41.90
2019-03-21T00:21:09.851Z,47.70
2019-03-21T00:23:36.241Z,49.73
2019-03-21T00:26:02.718Z,62.63
2019-03-21T00:28:29.164Z,49.23
2019-03-21T00:30:55.872Z,52.50
2019-03-21T00:33:23.018Z,56.80
2019-03-21T00:35:49.512Z,68.17
2019-03-21T00:38:16.365Z,54.30
2019-03-21T00:40:45.043Z,48.63
2019-03-21T00:43:12.054Z,58.53
2019-03-21T00:45:38.439Z,51.27
2019-03-21T00:48:07.584Z,57.90
2019-03-21T00:50:35.471Z,66.73
2019-03-21T00:53:01.937Z,62.60
2019-03-21T00:55:31.523Z,58.63
2019-03-21T00:57:58.726Z,52.47
2019-03-21T01:00:31.268Z,46.13
2019-03-21T01:02:58.174Z,64.57
2019-03-21T01:05:24.975Z,50.33
2019-03-21T01:07:51.670Z,47.50
2019-03-21T01:10:30.259Z,45.00
2019-03-21T01:12:56.717Z,55.63
2019-03-21T01:15:23.178Z,41.40
2019-03-21T01:17:49.598Z,52.10
2019-03-21T01:20:16.160Z,55.00
2019-03-21T01:22:43.131Z,49.23
2019-03-21T01:25:21.918Z,55.50
2019-03-21T01:27:48.392Z,39.30
2019-03-21T01:30:19.491Z,48.83
2019-03-21T01:32:46.756Z,57.17
2019-03-21T01:35:13.712Z,41.57
2019-03-21T01:37:40.244Z,46.60
2019-03-21T01:40:10.393Z,44.77
2019-03-21T01:42:36.752Z,56.53
2019-03-21T01:45:06.967Z,48.90
2019-03-21T01:47:34.116Z,44.33
2019-03-21T01:50:00.753Z,48.07
2019-03-21T01:52:27.207Z,40.90
2019-03-21T01:54:54.681Z,44.00
2019-03-21T01:57:21.108Z,51.77
2019-03-21T01:59:47.580Z,49.87
2019-03-21T02:02:14.102Z,45.50
2019-03-21T02:04:40.521Z,51.57
2019-03-21T02:07:08.345Z,51.17
2019-03-21T02:09:35.259Z,49.20
2019-03-21T02:12:01.723Z,49.47
2019-03-21T02:14:28.459Z,61.67
2019-03-21T02:16:55.507Z,49.77
2019-03-21T02:19:21.929Z,53.50
2019-03-21T02:21:48.403Z,54.40
2019-03-21T02:24:14.892Z,53.60
2019-03-21T02:26:41.383Z,51.07
2019-03-21T02:29:09.101Z,50.90
2019-03-21T02:31:35.770Z,45.40
2019-03-21T02:34:02.403Z,56.33
2019-03-21T02:36:29.733Z,50.97
2019-03-21T02:38:56.368Z,56.83
2019-03-21T02:41:25.577Z,67.60
2019-03-21T02:43:51.245Z,45.77
2019-03-21T02:46:17.741Z,43.93
2019-03-21T02:48:44.324Z,58.07
2019-03-21T02:51:10.725Z,55.13
2019-03-21T02:53:37.293Z,54.27
2019-03-21T02:56:07.510Z,65.37
2019-03-21T02:58:33.895Z,53.27
2019-03-21T03:01:00.346Z,65.00
2019-03-21T03:03:26.848Z,58.97
2019-03-21T03:05:53.601Z,54.93
2019-03-21T03:08:20.295Z,57.97
2019-03-21T03:10:54.903Z,70.23
2019-03-21T03:13:21.730Z,56.83
2019-03-21T03:15:48.231Z,63.10
2019-03-21T03:18:19.465Z,61.47
2019-03-21T03:20:45.765Z,74.30
2019-03-21T03:23:12.169Z,66.27
2019-03-21T03:25:38.632Z,70.17
2019-03-21T03:28:10.293Z,65.63
2019-03-21T03:30:37.277Z,70.90
2019-03-21T03:33:03.886Z,74.97
2019-03-21T03:35:30.615Z,89.03
2019-03-21T03:37:57.659Z,77.00
2019-03-21T03:40:33.500Z,92.27
2019-03-21T03:43:00.784Z,78.73
2019-03-21T03:46:04.046Z,77.03
2019-03-21T03:48:30.612Z,76.90
2019-03-21T03:50:57.511Z,77.70
2019-03-21T03:53:24.125Z,81.57
2019-03-21T03:55:51.015Z,88.97
2019-03-21T03:58:28.223Z,86.93
2019-03-21T04:00:54.822Z,76.83
2019-03-21T04:03:21.488Z,85.17
2019-03-21T04:05:48.102Z,66.37
2019-03-21T04:08:14.859Z,80.97
2019-03-21T04:10:43.493Z,86.93
2019-03-21T04:13:09.889Z,88.43
2019-03-21T04:15:51.331Z,97.57
2019-03-21T04:18:04.927Z,92.67
2019-03-21T04:20:41.254Z,85.03
2019-03-21T04:23:07.904Z,92.03
2019-03-21T04:25:40.863Z,92.30
2019-03-21T04:28:09.284Z,89.60
2019-03-21T04:30:36.010Z,93.13
2019-03-21T04:33:02.484Z,81.63
2019-03-21T04:35:30.884Z,88.20
2019-03-21T04:37:57.300Z,100.97
2019-03-21T04:40:25.116Z,104.17
2019-03-21T04:42:51.604Z,109.20
2019-03-21T04:45:19.347Z,84.50
2019-03-21T04:47:45.919Z,98.80
2019-03-21T04:50:15.128Z,93.93
2019-03-21T04:52:41.885Z,95.47
2019-03-21T04:55:10.106Z,93.03
2019-03-21T04:57:36.704Z,102.40
2019-03-21T05:00:08.468Z,105.87
2019-03-21T05:02:34.835Z,90.43
2019-03-21T05:05:02.089Z,115.90
2019-03-21T05:07:28.526Z,88.23
2019-03-21T05:09:55.584Z,100.83
2019-03-21T05:12:22.232Z,114.30
2019-03-21T05:14:48.746Z,90.67
2019-03-21T05:17:15.258Z,109.47
2019-03-21T05:19:42.175Z,100.27
2019-03-21T05:22:08.569Z,108.57
2019-03-21T05:24:35.276Z,103.20
2019-03-21T05:27:02.727Z,112.17
2019-03-21T05:29:29.413Z,109.30
2019-03-21T05:31:56.206Z,93.67
2019-03-21T05:34:22.748Z,100.80
2019-03-21T05:36:50.541Z,115.83
2019-03-21T05:39:17.443Z,101.77
2019-03-21T05:41:45.608Z,125.37
2019-03-21T05:44:14.263Z,95.93
2019-03-21T05:46:40.736Z,110.37
2019-03-21T05:49:08.140Z,108.33
2019-03-21T05:51:34.866Z,110.60
2019-03-21T05:54:01.891Z,110.10
2019-03-21T05:56:28.428Z,106.27
2019-03-21T05:58:55.167Z,96.10
2019-03-21T06:01:22.917Z,89.70
2019-03-21T06:03:50.520Z,107.30
2019-03-21T06:06:26.683Z,98.80
2019-03-21T06:08:53.171Z,89.47
2019-03-21T06:11:19.915Z,81.00
2019-03-21T06:13:49.103Z,84.57
2019-03-21T06:16:16.811Z,65.90
2019-03-21T06:18:54.325Z,85.47
2019-03-21T06:21:24.624Z,85.13
2019-03-21T06:24:05.104Z,74.03
2019-03-21T06:26:39.692Z,88.50
2019-03-21T06:29:06.755Z,77.43
2019-03-21T06:31:33.619Z,85.33
2019-03-21T06:34:00.134Z,83.43
2019-03-21T06:36:26.712Z,75.03
2019-03-21T06:38:53.478Z,77.40
2019-03-21T06:41:20.239Z,78.87
2019-03-21T06:43:48.019Z,62.83
2019-03-21T06:46:14.669Z,50.57
2019-03-21T06:48:41.909Z,52.63
2019-03-21T06:51:08.730Z,80.97
2019-03-21T06:53:35.660Z,66.53
2019-03-21T06:56:02.314Z,68.70
2019-03-21T06:58:28.785Z,55.63
2019-03-21T07:00:55.667Z,66.90
2019-03-21T07:03:22.700Z,49.53
2019-03-21T07:05:49.610Z,56.07
2019-03-21T07:08:21.233Z,73.93
2019-03-21T07:10:47.989Z,68.40
2019-03-21T07:24:17.680Z,59.20
2019-03-21T08:15:49.186Z,59.33
2019-03-21T08:19:30.096Z,63.40
2019-03-21T08:24:50.843Z,47.63
2019-03-21T08:53:26.168Z,55.60
2019-03-21T08:55:53.130Z,49.20
2019-03-21T08:58:19.503Z,69.53
2019-03-21T09:00:46.227Z,54.57
2019-03-21T09:03:14.477Z,54.17
2019-03-21T09:05:40.939Z,55.67
2019-03-21T09:08:07.869Z,55.03
2019-03-21T09:10:34.667Z,30.70
2019-03-21T09:13:01.575Z,53.40
2019-03-21T09:15:28.305Z,35.17
2019-03-21T09:17:56.060Z,38.33
2019-03-21T09:20:23.341Z,36.40
2019-03-21T09:22:50.133Z,39.53
2019-03-21T09:25:17.419Z,43.27
2019-03-21T09:27:43.963Z,42.70
2019-03-21T09:30:12.325Z,49.73
2019-03-21T09:32:40.817Z,67.53
2019-03-21T09:35:08.119Z,45.20
2019-03-21T09:37:34.675Z,48.83
2019-03-21T09:40:01.849Z,54.43
2019-03-21T09:42:28.286Z,58.87
2019-03-21T09:44:55.355Z,73.90
2019-03-21T09:47:22.791Z,64.90
2019-03-21T09:49:51.280Z,61.10
2019-03-21T09:52:19.369Z,53.27
2019-03-21T09:54:52.602Z,58.80
2019-03-21T09:57:20.687Z,64.10
2019-03-21T09:59:47.252Z,59.10
2019-03-21T10:02:14.497Z,59.43
2019-03-21T10:04:41.939Z,46.57
2019-03-21T10:07:14.134Z,64.60
2019-03-21T10:09:42.894Z,66.73
2019-03-21T10:12:11.725Z,60.13
2019-03-21T10:14:46.520Z,63.73
2019-03-21T10:17:13.750Z,52.47
2019-03-21T10:19:41.124Z,56.57
2019-03-21T10:22:08.740Z,47.07
2019-03-21T10:24:35.992Z,45.60
2019-03-21T10:27:03.298Z,44.30
2019-03-21T10:29:32.284Z,50.40
2019-03-21T10:31:59.701Z,40.73
2019-03-21T10:34:26.382Z,34.67
2019-03-21T10:36:53.565Z,41.27
2019-03-21T10:39:20.567Z,37.70
2019-03-21T10:41:47.105Z,33.13
2019-03-21T10:44:13.972Z,36.40
2019-03-21T10:46:40.434Z,34.07
2019-03-21T10:49:07.218Z,43.60
2019-03-21T10:51:37.395Z,40.80
2019-03-21T10:54:04.540Z,41.87
2019-03-21T10:59:21.102Z,51.33
2019-03-21T11:01:50.141Z,55.53
2019-03-21T11:07:13.180Z,58.47
2019-03-21T11:09:41.926Z,55.13
2019-03-21T11:12:09.568Z,47.93
2019-03-21T11:14:38.785Z,57.30
2019-03-21T11:17:10.711Z,53.27
2019-03-21T11:19:40.050Z,53.70
2019-03-21T11:22:07.325Z,51.30
2019-03-21T11:24:34.668Z,47.10
2019-03-21T11:27:01.679Z,57.10
2019-03-21T11:29:28.829Z,49.20
2019-03-21T11:31:56.154Z,47.33
2019-03-21T11:34:23.741Z,51.97
2019-03-21T11:36:50.972Z,50.03
2019-03-21T11:39:17.990Z,58.00
2019-03-21T11:41:44.570Z,48.30
2019-03-21T11:44:11.663Z,59.27
2019-03-21T11:46:38.327Z,58.00
2019-03-21T11:49:06.728Z,51.50
2019-03-21T11:51:37.008Z,63.33
2019-03-21T11:54:03.864Z,61.30
2019-03-21T11:56:30.818Z,52.43
2019-03-21T11:58:57.227Z,43.00
2019-03-21T12:01:24.717Z,53.03
2019-03-21T12:03:51.635Z,49.63
2019-03-21T12:06:20.394Z,53.00
2019-03-21T12:08:49.909Z,48.90
2019-03-21T12:11:16.565Z,48.43
2019-03-21T12:13:43.440Z,54.00
2019-03-21T12:16:10.446Z,44.67
2019-03-21T12:18:37.474Z,53.03
2019-03-21T12:21:05.203Z,44.30
2019-03-21T12:23:33.605Z,53.63
2019-03-21T12:26:00.811Z,57.67
2019-03-21T12:28:28.045Z,42.10
2019-03-21T12:30:54.563Z,60.27
2019-03-21T12:33:22.028Z,53.93
2019-03-21T12:41:31.751Z,46.83
2019-03-21T12:44:04.797Z,52.57
2019-03-21T12:46:34.417Z,62.60
2019-03-21T12:49:01.724Z,45.60
2019-03-21T12:51:34.296Z,50.73
2019-03-21T12:54:08.671Z,44.63
2019-03-21T12:56:45.246Z,43.87
2019-03-21T12:59:14.243Z,48.60
2019-03-21T13:01:53.137Z,40.67
2019-03-21T13:04:21.957Z,49.40
2019-03-21T13:06:54.759Z,56.50
2019-03-21T13:09:24.042Z,50.70
2019-03-21T13:11:52.588Z,54.83
2019-03-21T13:14:21.387Z,38.37
2019-03-21T13:16:48.959Z,51.43
2019-03-21T13:19:15.668Z,47.37
2019-03-21T13:21:42.270Z,52.40
2019-03-21T13:24:17.064Z,50.00
2019-03-21T13:26:43.549Z,44.20
2019-03-21T13:29:12.357Z,65.53
2019-03-21T13:31:41.518Z,65.77
2019-03-21T13:34:08.834Z,42.60
2019-03-21T13:36:38.215Z,49.13
2019-03-21T13:39:07.103Z,53.97
2019-03-21T13:41:34.166Z,48.50
2019-03-21T13:44:03.087Z,62.60
2019-03-21T13:46:29.882Z,37.80
2019-03-21T13:48:56.556Z,53.93
2019-03-21T13:51:27.753Z,51.97
2019-03-21T13:53:56.598Z,50.73
2019-03-21T13:56:24.898Z,43.33
2019-03-21T13:58:53.883Z,38.83
2019-03-21T14:01:24.416Z,36.47
2019-03-21T14:03:52.932Z,29.80
2019-03-21T14:06:21.849Z,32.37
2019-03-21T14:08:49.547Z,30.33
2019-03-21T14:11:19.567Z,26.93
2019-03-21T14:13:47.392Z,25.50
2019-03-21T14:19:06.728Z,34.57
2019-03-21T14:21:41.652Z,27.33
2019-03-21T14:24:08.476Z,31.00
2019-03-21T14:26:35.992Z,32.47
2019-03-21T14:29:12.299Z,29.87
2019-03-21T14:31:33.416Z,25.03
2019-03-21T14:34:00.281Z,31.13
2019-03-21T14:36:36.754Z,35.40
2019-03-21T14:45:06.508Z,30.00
2019-03-21T14:47:36.480Z,33.47
2019-03-21T14:50:05.671Z,33.23
2019-03-21T14:55:22.509Z,39.13
2019-03-21T14:57:51.213Z,41.60
2019-03-21T15:00:18.807Z,33.07
2019-03-21T15:02:46.649Z,36.80
2019-03-21T15:05:14.328Z,39.50
2019-03-21T15:07:42.591Z,40.23
2019-03-21T15:13:06.384Z,36.20
2019-03-21T15:35:24.821Z,47.23
2019-03-21T15:40:51.998Z,45.57
2019-03-21T15:55:39.625Z,47.17
2019-03-21T16:01:05.114Z,43.07
2019-03-21T16:03:32.570Z,48.10
2019-03-21T16:06:01.767Z,43.63
2019-03-21T16:11:08.396Z,47.47
2019-03-21T16:13:45.071Z,51.40
2019-03-21T16:16:14.508Z,50.83
2019-03-21T16:18:42.063Z,54.27
2019-03-21T16:21:08.696Z,38.40
2019-03-21T17:02:06.771Z,43.87
2019-03-21T17:32:10.980Z,58.60
2019-03-21T17:37:24.729Z,52.73
2019-03-21T17:39:53.695Z,57.50
2019-03-21T17:42:21.460Z,52.00
2019-03-21T17:44:48.520Z,51.10
2019-03-21T17:52:35.941Z,56.83
2019-03-21T17:55:06.246Z,50.93
2019-03-21T17:57:36.839Z,50.00
2019-03-21T18:00:18.401Z,51.53
2019-03-21T18:02:49.603Z,49.90
2019-03-21T18:05:19.425Z,47.37
2019-03-21T18:07:49.976Z,47.87
2019-03-21T18:10:42.429Z,49.40
2019-03-21T18:13:30.441Z,52.20
2019-03-21T18:15:59.143Z,50.47
2019-03-21T18:21:16.994Z,55.37
2019-03-21T18:23:47.499Z,50.80
2019-03-21T18:26:16.049Z,49.93
2019-03-21T18:28:43.582Z,61.90
2019-03-21T18:31:12.058Z,51.27
2019-03-21T18:33:38.947Z,50.77
2019-03-21T18:36:06.782Z,49.07
2019-03-21T18:41:28.346Z,49.77
2019-03-21T18:46:49.492Z,59.27
2019-03-21T18:49:22.891Z,56.70
2019-03-21T19:08:42.776Z,53.93
2019-03-21T19:11:10.953Z,58.27
2019-03-21T19:13:39.892Z,59.57
2019-03-21T19:18:57.942Z,52.90
2019-03-21T19:21:27.721Z,60.73
2019-03-21T19:24:00.363Z,58.60
2019-03-21T19:26:27.056Z,54.27
2019-03-21T19:28:56.968Z,55.20
2019-03-21T19:31:27.155Z,71.07
2019-03-21T19:36:46.173Z,58.20
2019-03-21T19:39:14.701Z,56.30
2019-03-21T19:41:41.437Z,61.67
2019-03-21T19:44:08.456Z,59.27
2019-03-21T19:49:34.649Z,57.33
2019-03-21T19:52:01.381Z,58.57
2019-03-21T19:54:28.319Z,59.20
2019-03-21T19:56:56.813Z,56.03
2019-03-21T19:59:23.820Z,54.77
2019-03-21T20:01:52.731Z,61.93
2019-03-21T20:04:19.320Z,67.27
2019-03-21T20:06:48.654Z,58.50
2019-03-21T20:09:17.036Z,59.43
2019-03-21T20:11:44.148Z,64.30
2019-03-21T20:14:10.723Z,61.63
2019-03-21T20:16:37.781Z,59.23
2019-03-21T20:19:07.558Z,67.10
2019-03-21T20:21:47.756Z,64.43
2019-03-21T20:24:15.596Z,65.80
2019-03-21T20:29:36.625Z,66.50
2019-03-21T20:32:20.469Z,63.97
2019-03-21T20:40:43.110Z,73.00
2019-03-21T20:43:17.673Z,71.27
2019-03-21T20:45:47.898Z,64.90
2019-03-21T20:51:04.181Z,68.33
2019-03-21T20:53:30.976Z,75.20
2019-03-21T20:55:59.207Z,83.17
2019-03-21T20:58:26.246Z,70.53
2019-03-21T21:01:19.130Z,72.33
2019-03-21T21:06:13.638Z,68.20
2019-03-21T21:08:43.291Z,69.77
2019-03-21T21:11:14.279Z,79.67
2019-03-21T21:13:41.397Z,71.10
2019-03-21T21:16:08.993Z,72.30
2019-03-21T21:26:59.267Z,69.07
2019-03-21T21:29:26.716Z,63.10
2019-03-21T21:31:58.785Z,75.77
2019-03-21T21:34:30.215Z,75.17
2019-03-21T21:42:40.918Z,72.30
2019-03-21T21:45:12.039Z,66.37
2019-03-21T21:47:39.672Z,79.20
2019-03-21T21:50:12.593Z,66.00
2019-03-21T21:52:45.826Z,76.77
2019-03-21T21:55:12.758Z,78.00
2019-03-21T21:57:39.413Z,86.43
2019-03-21T22:00:21.677Z,85.03
2019-03-21T22:02:49.218Z,77.17
2019-03-21T22:05:16.852Z,82.80
2019-03-21T22:07:43.517Z,86.20
2019-03-21T22:10:23.242Z,86.23
2019-03-21T22:12:53.283Z,87.23
2019-03-21T22:15:20.072Z,88.93
2019-03-21T22:17:46.779Z,95.97
2019-03-21T22:20:15.073Z,81.40
2019-03-21T22:22:42.942Z,93.60
2019-03-21T22:25:12.164Z,85.37
2019-03-21T22:27:43.737Z,86.10
2019-03-21T22:30:13.837Z,86.20
2019-03-21T22:32:46.306Z,94.87
2019-03-21T22:35:13.555Z,83.70
2019-03-21T22:37:40.659Z,104.17
2019-03-21T22:40:16.741Z,99.90
2019-03-21T22:42:44.673Z,79.67
2019-03-21T22:45:13.049Z,90.17
2019-03-21T22:47:40.832Z,97.07
2019-03-21T22:50:15.764Z,93.10
2019-03-21T22:52:42.825Z,94.67
2019-03-21T22:55:09.818Z,99.50
2019-03-21T22:57:38.642Z,113.53
2019-03-21T23:00:17.311Z,92.80
2019-03-21T23:02:44.648Z,95.03
2019-03-21T23:05:11.832Z,97.23
2019-03-21T23:07:39.539Z,103.80
2019-03-21T23:10:07.592Z,95.07
2019-03-21T23:15:22.083Z,91.73
2019-03-21T23:17:48.774Z,93.07
2019-03-21T23:20:15.828Z,82.30
2019-03-21T23:22:43.414Z,65.17
2019-03-21T23:25:12.056Z,71.33
2019-03-21T23:27:39.403Z,80.93
2019-03-21T23:30:16.767Z,93.27
2019-03-21T23:32:45.453Z,84.67
2019-03-21T23:35:12.678Z,80.17
2019-03-21T23:37:39.855Z,75.03
2019-03-21T23:40:09.385Z,71.70
2019-03-21T23:42:36.513Z,73.17
2019-03-21T23:45:06.221Z,69.33
2019-03-21T23:47:35.786Z,69.73
2019-03-21T23:50:05.280Z,72.33
2019-03-21T23:52:36.126Z,70.40
2019-03-21T23:55:06.630Z,65.67
2019-03-21T23:57:34.540Z,60.20
